Terminal Aerodrome Forecast
Issued by NWS

Home | Current Version | Previous Version | Graphics & Text | Print | Product List | Glossary On
Versions: 1 2 3 4 5 6 7 8 9 10 11 12 13 14 15 16 17 18 19 20
000
FTUS43 KBIS 251537 AAB
TAFDIK
TAF AMD
KDIK 251537Z 2516/2612 VRB03KT P6SM VCSH SCT007 OVC012
      TEMPO 2516/2518 3SM -DZ BR BKN007
     FM251800 VRB03KT P6SM VCSH OVC015
     FM252300 10006KT P6SM OVC020
     FM260600 16005KT P6SM BKN050
     FM261000 18004KT P6SM BKN030=

USA.gov is the U.S. government's official web portal to all federal, state and local government web resources and services.